Time;durP1;ratioP1;P1;durP2;ratioP2;P2;SDS_P1;SDS_P2;PMS_P1;PMS_P2;Temp;Humidity;BMP_temperature;BMP_pressure;BME280_temperature;BME280_humidity;BME280_pressure;Samples;Min_cycle;Max_cycle;Signal;HPM_P1;HPM_P2
2022/01/04 12:06:20;;;;;;;13.27;5.30;;;23.40;95.80;;;;;;5131303;27;20815;-63
2022/01/04 12:08:50;;;;;;;14.35;4.85;;;23.30;95.20;;;;;;5098985;28;20073;-60
2022/01/04 12:12:58;;;;;;;13.52;3.88;;;23.30;92.70;;;;;;5126732;27;20176;-62
2022/01/04 12:15:33;;;;;;;12.02;4.88;;;23.20;86.30;;;;;;5111788;28;20438;-62
2022/01/04 12:18:29;;;;;;;12.40;4.28;;;23.00;92.50;;;;;;5110311;28;20044;-60
2022/01/04 12:20:59;;;;;;;11.35;4.47;;;22.80;88.70;;;;;;5079891;28;20091;-61
2022/01/04 12:23:35;;;;;;;11.25;3.67;;;22.80;96.00;;;;;;5108330;28;20117;-60
2022/01/04 12:28:34;;;;;;;11.52;3.67;;;22.70;90.90;;;;;;5109887;28;20044;-60
2022/01/04 12:31:23;;;;;;;10.60;3.45;;;22.70;90.20;;;;;;5109773;28;20051;-62
2022/01/04 12:33:50;;;;;;;8.65;3.33;;;22.70;92.40;;;;;;5111726;28;20048;-61
2022/01/04 12:36:38;;;;;;;10.52;2.90;;;22.80;92.30;;;;;;5111054;28;20032;-61
2022/01/04 12:39:06;;;;;;;8.10;2.80;;;22.80;89.70;;;;;;5111612;28;20040;-62
2022/01/04 12:41:32;;;;;;;10.05;3.17;;;22.70;90.10;;;;;;5106969;28;20523;-65
2022/01/04 12:43:58;;;;;;;9.38;2.50;;;22.60;92.80;;;;;;5101941;28;20071;-64
2022/01/04 12:46:28;;;;;;;7.35;2.33;;;22.40;92.00;;;;;;5117208;28;20040;-64
2022/01/04 12:48:56;;;;;;;8.82;2.28;;;22.20;89.20;;;;;;5115664;28;20070;-64
2022/01/04 12:51:38;;;;;;;6.35;2.03;;;22.10;90.80;;;;;;5116525;28;20043;-64
2022/01/04 12:54:07;;;;;;;7.10;1.88;;;22.20;93.10;;;;;;5114777;28;20043;-63
2022/01/04 12:56:33;;;;;;;7.72;2.33;;;22.40;91.90;;;;;;5124674;27;20048;-64
2022/01/04 12:58:58;;;;;;;6.82;2.20;;;22.50;91.90;;;;;;5099409;28;20040;-63
2022/01/04 13:01:28;;;;;;;10.45;1.88;;;22.60;91.60;;;;;;5115494;28;20077;-64
2022/01/04 13:03:54;;;;;;;6.00;1.80;;;22.70;91.00;;;;;;5115370;28;20046;-63
2022/01/04 13:06:21;;;;;;;6.45;1.88;;;22.70;88.00;;;;;;5114971;28;20043;-63
2022/01/04 13:08:51;;;;;;;6.50;2.10;;;22.70;90.30;;;;;;5116125;28;20114;-63
2022/01/04 13:11:17;;;;;;;6.40;2.03;;;22.80;90.50;;;;;;5116470;28;20055;-64
2022/01/04 13:13:43;;;;;;;5.82;1.75;;;22.80;90.20;;;;;;5113960;28;20047;-63
2022/01/04 13:16:21;;;;;;;5.20;1.58;;;22.90;89.40;;;;;;5117523;28;20095;-63
2022/01/04 13:18:48;;;;;;;5.70;1.35;;;22.90;88.70;;;;;;5114171;28;20096;-63
2022/01/04 13:21:14;;;;;;;5.93;1.60;;;22.90;86.70;;;;;;5117700;28;20044;-63
2022/01/04 13:23:40;;;;;;;5.88;1.40;;;22.90;87.00;;;;;;5097062;28;20047;-65
2022/01/04 13:26:06;;;;;;;5.50;1.60;;;22.90;86.80;;;;;;5101228;28;20060;-64
2022/01/04 13:28:33;;;;;;;6.32;1.55;;;22.90;86.00;;;;;;5103428;28;20063;-63
2022/01/04 13:30:58;;;;;;;7.00;1.33;;;22.90;85.70;;;;;;5084126;28;20048;-63
2022/01/04 13:33:24;;;;;;;5.57;1.30;;;22.90;86.20;;;;;;5099694;28;20104;-64
2022/01/04 13:35:50;;;;;;;4.15;1.08;;;22.90;86.80;;;;;;5102353;28;20048;-64
2022/01/04 13:38:19;;;;;;;4.80;1.30;;;22.90;88.40;;;;;;5083373;28;20044;-65
2022/01/04 13:40:45;;;;;;;5.38;1.30;;;22.90;89.20;;;;;;5100498;28;20052;-64
2022/01/04 13:43:14;;;;;;;4.57;1.20;;;23.00;88.50;;;;;;5099710;28;20032;-64
2022/01/04 13:45:41;;;;;;;4.85;1.00;;;23.00;88.20;;;;;;5081790;28;20074;-65
2022/01/04 13:48:06;;;;;;;4.38;1.10;;;23.00;88.80;;;;;;5083581;28;20050;-64
2022/01/04 13:50:43;;;;;;;4.13;0.95;;;23.10;87.60;;;;;;5099059;28;20097;-64
2022/01/04 13:53:19;;;;;;;4.18;1.00;;;23.10;84.80;;;;;;5103768;28;20071;-65
2022/01/04 13:56:09;;;;;;;5.88;1.30;;;23.00;86.00;;;;;;5077952;28;20118;-66
2022/01/04 13:58:49;;;;;;;5.25;1.30;;;23.00;85.90;;;;;;5101728;28;20052;-64
2022/01/04 14:01:20;;;;;;;5.07;1.35;;;23.00;81.40;;;;;;5098655;28;20486;-69
2022/01/04 14:03:48;;;;;;;6.72;1.40;;;22.90;83.30;;;;;;5092243;28;20040;-66
2022/01/04 14:06:45;;;;;;;3.95;0.90;;;22.90;85.30;;;;;;5098545;28;20043;-65
2022/01/04 14:09:22;;;;;;;4.50;1.08;;;23.00;88.00;;;;;;5075218;28;20078;-65
2022/01/04 14:11:51;;;;;;;5.05;0.95;;;23.00;81.90;;;;;;5099258;28;20414;-64
2022/01/04 14:14:24;;;;;;;4.35;1.15;;;22.90;81.70;;;;;;5080831;28;20092;-63
2022/01/04 14:16:51;;;;;;;4.38;1.00;;;22.90;86.70;;;;;;5100997;28;20039;-63
2022/01/04 14:19:23;;;;;;;5.25;1.13;;;22.90;85.80;;;;;;5099259;28;20048;-63
2022/01/04 14:21:53;;;;;;;6.05;1.05;;;23.00;83.70;;;;;;5099998;28;20115;-65
2022/01/04 14:24:47;;;;;;;4.85;0.95;;;23.00;85.90;;;;;;5095415;28;20048;-62
2022/01/04 14:27:15;;;;;;;;;;;23.10;85.90;;;;;;5094471;28;20036;-61
2022/01/04 14:29:42;;;;;;;;;;;23.10;86.70;;;;;;5092585;28;19920;-61
2022/01/04 14:32:14;;;;;;;4.65;1.10;;;;;;;;;;5088501;28;20460;-72
2022/01/04 15:04:15;;;;;;;10.98;4.43;;;31.60;48.00;;;;;;5136617;27;20495;-65
2022/01/04 15:06:42;;;;;;;13.98;5.25;;;30.10;47.30;;;;;;5131893;27;20043;-63
2022/01/04 15:09:09;;;;;;;14.13;4.57;;;28.80;50.60;;;;;;5132823;27;20432;-62
2022/01/04 15:14:30;;;;;;;10.52;3.70;;;27.60;57.00;;;;;;5089357;27;20467;-63
2022/01/04 15:19:55;;;;;;;11.07;4.00;;;26.90;57.40;;;;;;5179467;27;20484;-62
2022/01/04 15:22:22;;;;;;;9.30;3.10;;;26.40;62.00;;;;;;5182918;27;20621;-69
2022/01/04 15:24:48;;;;;;;10.25;3.42;;;25.90;62.20;;;;;;5174906;27;20054;-65
2022/01/04 15:27:18;;;;;;;11.55;3.30;;;25.50;62.00;;;;;;5170481;27;20047;-60
2022/01/04 15:29:44;;;;;;;12.35;3.03;;;25.20;61.70;;;;;;5173216;27;20550;-62
2022/01/04 15:32:10;;;;;;;10.18;3.30;;;25.00;63.00;;;;;;5137526;27;20078;-64
2022/01/04 15:37:05;;;;;;;;;;;23.50;44.70;;;;;;5096775;27;2051253;-91
2022/01/04 15:39:31;;;;;;;;;;;20.60;50.60;;;;;;5313936;23;19924;-92
2022/01/04 15:41:57;;;;;;;;;;;18.60;55.60;;;;;;5080894;28;20035;-92
2022/01/04 15:44:23;;;;;;;;;;;16.90;61.70;;;;;;5050198;28;19924;-91
2022/01/04 15:46:49;;;;;;;9.60;1.90;;;15.30;68.10;;;;;;5083514;28;20424;-89
2022/01/04 15:49:15;;;;;;;10.32;2.20;;;14.10;78.20;;;;;;5031068;28;20083;-96
2022/01/04 16:51:47;;;;;;;;;;;19.60;99.90;;;;;;5102649;27;20509;-66
2022/01/04 16:54:12;;;;;;;;;;;19.90;99.90;;;;;;4906902;27;61826;-64
2022/01/04 17:47:21;;;;;;;10.07;3.35;;;20.80;99.90;;;;;;5086532;27;20422;-65
2022/01/04 17:49:46;;;;;;;7.85;2.55;;;20.60;99.70;;;;;;5010683;23;20045;-69
2022/01/04 17:52:12;;;;;;;12.68;3.28;;;20.60;99.90;;;;;;5011625;28;20049;-66
2022/01/04 17:54:37;;;;;;;11.05;2.85;;;20.60;99.90;;;;;;5003471;28;20447;-65
2022/01/04 19:47:28;;;;;;;11.57;3.78;;;22.10;83.40;;;;;;4992230;27;20368;-65
2022/01/04 19:52:41;;;;;;;10.70;4.07;;;21.50;76.40;;;;;;4739599;27;70519;-64
2022/01/04 19:55:07;;;;;;;11.32;4.03;;;21.00;80.10;;;;;;4918163;28;74501;-65
2022/01/04 19:57:33;;;;;;;11.97;4.00;;;20.80;81.00;;;;;;4954832;28;72560;-65
2022/01/04 19:59:58;;;;;;;11.57;4.05;;;21.00;86.90;;;;;;4961650;28;74998;-69
2022/01/04 20:02:24;;;;;;;10.67;3.43;;;20.60;84.20;;;;;;5017364;28;20437;-67
2022/01/04 20:04:50;;;;;;;10.85;3.95;;;20.40;85.20;;;;;;4975727;28;20439;-68
2022/01/04 20:07:16;;;;;;;9.95;3.80;;;20.30;87.50;;;;;;4988803;28;20450;-68
2022/01/04 20:09:41;;;;;;;11.05;3.95;;;20.10;87.60;;;;;;5004155;28;20964;-68
2022/01/04 20:12:08;;;;;;;11.30;3.53;;;20.10;88.30;;;;;;4999876;28;20951;-67
2022/01/04 20:14:33;;;;;;;9.97;3.70;;;20.00;89.10;;;;;;4958709;28;20476;-64
2022/01/04 20:16:59;;;;;;;11.37;3.63;;;20.90;94.10;;;;;;4991073;28;20468;-63
2022/01/04 20:19:25;;;;;;;9.35;3.15;;;21.00;90.60;;;;;;5009874;28;20516;-63
2022/01/04 20:21:50;;;;;;;10.75;3.53;;;20.90;90.00;;;;;;5004551;28;20446;-62
2022/01/04 20:24:16;;;;;;;10.20;3.43;;;20.70;88.60;;;;;;5008604;28;20425;-63
2022/01/04 20:26:42;;;;;;;9.60;3.23;;;20.50;91.40;;;;;;5042886;28;20952;-61
2022/01/04 20:29:07;;;;;;;10.95;3.60;;;20.40;91.70;;;;;;5022981;28;20429;-64
2022/01/04 20:31:34;;;;;;;10.17;3.67;;;20.30;92.90;;;;;;5015271;28;20443;-62
2022/01/04 20:33:59;;;;;;;11.27;3.60;;;20.20;93.00;;;;;;4930045;28;20444;-64
2022/01/04 20:36:25;;;;;;;10.23;3.67;;;20.10;93.40;;;;;;5036158;28;20438;-62
2022/01/04 20:38:51;;;;;;;9.57;3.70;;;20.10;93.80;;;;;;5026103;28;20857;-63
2022/01/04 20:41:16;;;;;;;11.13;3.35;;;20.00;93.50;;;;;;5022521;28;20433;-64
2022/01/04 20:43:42;;;;;;;9.85;3.25;;;20.00;94.20;;;;;;5048093;28;20428;-63
2022/01/04 20:46:07;;;;;;;8.97;2.87;;;20.00;94.20;;;;;;5020808;28;20424;-63
2022/01/04 20:48:33;;;;;;;10.65;3.33;;;20.00;94.30;;;;;;5038023;28;20444;-63
2022/01/04 20:50:59;;;;;;;9.53;3.20;;;20.00;94.60;;;;;;5021686;28;20482;-64
2022/01/04 20:53:25;;;;;;;10.90;3.30;;;20.00;94.80;;;;;;5032637;28;20855;-61
2022/01/04 20:55:50;;;;;;;8.50;3.10;;;20.00;94.10;;;;;;5050650;28;20915;-63
2022/01/04 20:58:16;;;;;;;9.23;2.92;;;20.00;94.30;;;;;;5021925;28;20430;-64
2022/01/04 21:00:41;;;;;;;9.53;3.10;;;20.00;94.60;;;;;;5030665;28;20927;-63
2022/01/04 21:03:11;;;;;;;9.23;3.00;;;20.00;94.50;;;;;;5037109;28;20414;-61
2022/01/04 21:05:38;;;;;;;8.43;2.70;;;20.00;94.90;;;;;;5046666;28;20424;-63
2022/01/04 21:08:05;;;;;;;9.05;3.10;;;20.00;94.80;;;;;;5038785;28;20420;-63
2022/01/04 21:10:31;;;;;;;8.68;2.92;;;20.00;94.30;;;;;;5010944;28;20459;-64
2022/01/04 23:20:34;;;;;;;6.60;1.70;;;20.10;94.00;;;;;;5032000;27;21019;-63
2022/01/04 23:23:00;;;;;;;5.35;1.50;;;20.10;94.80;;;;;;4961607;28;20111;-64
2022/01/04 23:25:25;;;;;;;7.60;1.83;;;20.00;94.80;;;;;;5019660;28;20069;-65
2022/01/04 23:27:51;;;;;;;6.35;1.65;;;20.00;93.90;;;;;;5021299;28;20040;-64
2022/01/04 23:30:17;;;;;;;6.47;1.73;;;19.90;95.60;;;;;;5058336;28;20113;-68
2022/01/04 23:32:43;;;;;;;6.80;1.70;;;19.90;94.70;;;;;;5018661;28;20029;-68
2022/01/04 23:35:10;;;;;;;6.00;1.90;;;19.80;95.20;;;;;;4972742;28;20118;-68
2022/01/04 23:37:35;;;;;;;6.45;1.80;;;19.80;94.90;;;;;;4944345;28;20141;-66
2022/01/04 23:40:01;;;;;;;6.05;1.50;;;19.70;95.00;;;;;;5036495;28;20058;-67
2022/01/04 23:42:26;;;;;;;7.43;1.77;;;19.70;94.40;;;;;;5053969;28;20041;-68
2022/01/04 23:44:52;;;;;;;5.80;1.48;;;19.70;93.20;;;;;;5054791;28;20034;-64
2022/01/04 23:47:18;;;;;;;6.63;1.40;;;19.60;93.70;;;;;;5025752;28;20033;-64
2022/01/04 23:49:43;;;;;;;5.30;1.50;;;19.60;94.00;;;;;;5022625;28;20095;-62
2022/01/04 23:52:09;;;;;;;6.97;1.67;;;19.60;93.90;;;;;;5050876;28;20068;-63
2022/01/04 23:54:34;;;;;;;5.45;1.50;;;19.60;93.80;;;;;;5015165;28;20048;-63
2022/01/04 23:57:00;;;;;;;5.28;1.50;;;19.60;94.30;;;;;;5052585;28;20033;-63
2022/01/04 23:59:25;;;;;;;6.43;1.33;;;19.60;94.20;;;;;;5070922;28;20034;-64
